createdAt,value
2023-01-12T00:01:52.759Z,7.20
2023-01-12T00:04:20.607Z,7.07
2023-01-12T00:06:48.471Z,10.10
2023-01-12T00:09:16.142Z,9.27
2023-01-12T00:11:43.837Z,9.83
2023-01-12T00:14:11.370Z,9.07
2023-01-12T00:16:39.555Z,10.33
2023-01-12T00:19:11.833Z,7.17
2023-01-12T00:21:55.201Z,6.93
2023-01-12T00:24:24.391Z,6.50
2023-01-12T00:26:52.236Z,7.13
2023-01-12T00:29:19.825Z,8.60
2023-01-12T00:31:47.539Z,7.10
2023-01-12T00:34:16.947Z,6.33
2023-01-12T00:36:45.202Z,11.77
2023-01-12T00:39:13.045Z,7.60
2023-01-12T00:41:58.823Z,14.20
2023-01-12T00:44:44.377Z,8.93
2023-01-12T00:47:13.358Z,8.00
2023-01-12T00:49:42.524Z,7.50
2023-01-12T00:52:18.149Z,9.73
2023-01-12T00:54:52.966Z,7.37
2023-01-12T00:57:20.539Z,8.33
2023-01-12T00:59:48.021Z,11.57
2023-01-12T01:02:15.797Z,9.47
2023-01-12T01:04:44.686Z,9.70
2023-01-12T01:07:16.032Z,7.07
2023-01-12T01:09:44.184Z,9.13
2023-01-12T01:12:11.737Z,7.20
2023-01-12T01:14:39.238Z,8.00
2023-01-12T01:17:06.935Z,7.33
2023-01-12T01:19:34.476Z,9.87
2023-01-12T01:22:03.503Z,8.27
2023-01-12T01:24:30.999Z,5.57
2023-01-12T01:26:58.980Z,7.93
2023-01-12T01:29:26.491Z,10.13
2023-01-12T01:31:55.874Z,6.97
2023-01-12T01:34:23.850Z,6.83
2023-01-12T01:36:51.564Z,7.27
2023-01-12T01:39:20.492Z,9.47
2023-01-12T01:41:48.326Z,11.17
2023-01-12T01:44:51.288Z,14.33
2023-01-12T01:47:26.021Z,9.20
2023-01-12T01:49:56.634Z,6.43
2023-01-12T01:52:27.424Z,6.07
2023-01-12T01:54:58.866Z,9.77
2023-01-12T01:57:32.516Z,7.27
2023-01-12T02:00:01.000Z,7.90
2023-01-12T02:02:28.866Z,4.43
2023-01-12T02:04:58.088Z,8.97
2023-01-12T02:07:25.714Z,8.20
2023-01-12T02:09:53.261Z,5.47
2023-01-12T02:12:39.820Z,9.03
2023-01-12T02:15:25.947Z,4.67
2023-01-12T02:18:10.689Z,8.70
2023-01-12T02:21:07.247Z,8.47
2023-01-12T02:24:08.055Z,7.80
2023-01-12T02:27:13.345Z,6.50
2023-01-12T02:30:14.573Z,9.80
2023-01-12T02:32:52.853Z,5.57
2023-01-12T02:35:26.210Z,7.03
2023-01-12T02:38:01.731Z,6.67
2023-01-12T02:40:38.099Z,9.57
2023-01-12T02:43:09.351Z,7.13
2023-01-12T02:45:43.322Z,6.93
2023-01-12T02:48:16.864Z,7.60
2023-01-12T02:50:52.042Z,6.50
2023-01-12T02:53:24.222Z,8.53
2023-01-12T02:55:52.763Z,6.30
2023-01-12T02:58:23.374Z,5.53
2023-01-12T03:00:55.175Z,6.07
2023-01-12T03:03:25.487Z,7.17
2023-01-12T03:05:56.196Z,7.63
2023-01-12T03:08:28.640Z,9.70
2023-01-12T03:11:04.714Z,6.83
2023-01-12T03:13:36.453Z,6.23
2023-01-12T03:16:06.545Z,5.93
2023-01-12T03:18:39.775Z,8.13
2023-01-12T03:21:13.704Z,6.37
2023-01-12T03:23:47.238Z,6.70
2023-01-12T03:26:23.086Z,9.60
2023-01-12T03:28:56.086Z,4.30
2023-01-12T03:31:24.993Z,8.37
2023-01-12T03:33:55.685Z,4.80
2023-01-12T03:36:32.549Z,8.77
2023-01-12T03:39:08.678Z,6.57
2023-01-12T03:41:46.937Z,5.87
2023-01-12T03:44:20.874Z,9.33
2023-01-12T03:46:55.381Z,6.13
2023-01-12T03:49:30.982Z,9.10
2023-01-12T03:52:00.699Z,7.50
2023-01-12T03:54:30.724Z,7.10
2023-01-12T03:56:59.253Z,7.40
2023-01-12T03:59:27.309Z,8.03
2023-01-12T04:01:54.927Z,6.20
2023-01-12T04:04:23.202Z,5.93
2023-01-12T04:06:52.038Z,10.33
2023-01-12T04:09:19.907Z,5.30
2023-01-12T04:12:05.181Z,6.03
2023-01-12T04:14:32.667Z,4.83
2023-01-12T04:17:00.247Z,6.47
2023-01-12T04:19:27.804Z,7.53
2023-01-12T04:22:25.573Z,3.87
2023-01-12T04:24:53.338Z,6.17
2023-01-12T04:27:20.897Z,4.10
2023-01-12T04:29:48.429Z,5.77
2023-01-12T04:32:15.962Z,4.93
2023-01-12T04:34:43.465Z,3.63
2023-01-12T04:37:12.364Z,5.30
2023-01-12T04:39:39.906Z,5.80
2023-01-12T04:42:27.894Z,4.50
2023-01-12T04:44:55.442Z,4.50
2023-01-12T04:47:22.999Z,6.33
2023-01-12T04:49:50.554Z,4.93
2023-01-12T04:52:19.417Z,5.50
2023-01-12T04:54:47.005Z,4.97
2023-01-12T04:57:14.510Z,6.23
2023-01-12T04:59:42.008Z,4.27
2023-01-12T05:02:09.639Z,5.60
2023-01-12T05:04:37.194Z,5.77
2023-01-12T05:07:04.784Z,10.73
2023-01-12T05:09:51.242Z,6.80
2023-01-12T05:12:18.998Z,6.60
2023-01-12T05:14:46.549Z,6.00
2023-01-12T05:17:14.078Z,5.93
2023-01-12T05:19:41.695Z,5.63
2023-01-12T05:22:09.729Z,4.80
2023-01-12T05:24:38.575Z,3.00
2023-01-12T05:27:06.110Z,5.67
2023-01-12T05:29:33.643Z,7.40
2023-01-12T05:32:01.168Z,4.83
2023-01-12T05:34:28.655Z,8.67
2023-01-12T05:36:56.167Z,7.93
2023-01-12T05:39:23.711Z,8.37
2023-01-12T05:42:10.508Z,6.10
2023-01-12T05:44:38.116Z,5.70
2023-01-12T05:50:29.311Z,6.27
2023-01-12T05:53:08.665Z,6.53
2023-01-12T05:55:37.960Z,5.03
2023-01-12T05:58:07.016Z,6.70
2023-01-12T06:00:34.670Z,6.60
2023-01-12T06:03:02.910Z,3.97
2023-01-12T06:05:30.985Z,6.80
2023-01-12T06:07:58.912Z,7.27
2023-01-12T06:10:26.440Z,6.07
2023-01-12T06:13:11.590Z,6.37
2023-01-12T06:15:40.534Z,6.10
2023-01-12T06:18:08.129Z,6.73
2023-01-12T06:20:35.646Z,6.87
2023-01-12T06:23:04.928Z,7.40
2023-01-12T06:25:32.802Z,6.83
2023-01-12T06:28:00.421Z,4.90
2023-01-12T06:30:27.928Z,5.40
2023-01-12T06:32:56.739Z,3.87
2023-01-12T06:35:24.259Z,4.97
2023-01-12T06:37:56.699Z,4.40
2023-01-12T06:40:24.211Z,5.57
2023-01-12T06:42:51.849Z,6.07
2023-01-12T06:45:19.413Z,4.80
2023-01-12T06:47:47.620Z,3.63
2023-01-12T06:50:17.220Z,4.83
2023-01-12T06:52:44.761Z,6.37
2023-01-12T06:55:12.334Z,4.83
2023-01-12T06:57:40.072Z,3.73
2023-01-12T07:00:08.754Z,4.30
2023-01-12T07:02:36.322Z,3.80
2023-01-12T07:05:03.977Z,9.83
2023-01-12T07:07:32.958Z,5.47
2023-01-12T07:10:00.452Z,5.50
2023-01-12T07:12:28.024Z,3.47
2023-01-12T07:14:58.840Z,4.93
2023-01-12T07:17:26.379Z,5.57
2023-01-12T07:19:53.867Z,4.63
2023-01-12T07:22:21.400Z,2.67
2023-01-12T07:24:50.422Z,4.40
2023-01-12T07:27:17.948Z,4.00
2023-01-12T07:29:46.562Z,4.03
2023-01-12T07:32:14.283Z,3.00
2023-01-12T07:34:41.853Z,4.07
2023-01-12T07:37:09.352Z,5.17
2023-01-12T07:39:36.859Z,5.20
2023-01-12T07:42:25.140Z,4.90
2023-01-12T07:44:53.212Z,4.97
2023-01-12T07:47:21.341Z,4.80
2023-01-12T07:49:48.883Z,2.97
2023-01-12T07:52:16.400Z,2.97
2023-01-12T07:54:43.935Z,4.77
2023-01-12T07:57:12.975Z,4.87
2023-01-12T07:59:40.479Z,6.40
2023-01-12T08:02:10.804Z,4.37
2023-01-12T08:04:38.341Z,4.70
2023-01-12T08:07:05.843Z,4.97
2023-01-12T08:09:33.645Z,6.40
2023-01-12T08:12:01.164Z,3.83
2023-01-12T08:14:34.837Z,6.53
2023-01-12T08:17:04.410Z,5.07
2023-01-12T08:19:38.548Z,3.73
2023-01-12T08:22:10.982Z,7.30
2023-01-12T08:24:44.484Z,5.93
2023-01-12T08:27:12.415Z,4.57
2023-01-12T08:29:44.653Z,4.80
2023-01-12T08:32:17.785Z,7.47
2023-01-12T08:34:47.957Z,6.93
2023-01-12T08:37:18.690Z,4.63
2023-01-12T08:39:47.034Z,7.40
2023-01-12T08:42:14.724Z,5.10
2023-01-12T08:44:43.892Z,4.37
2023-01-12T08:47:17.958Z,6.60
2023-01-12T08:49:46.154Z,8.43
2023-01-12T08:52:14.839Z,4.10
2023-01-12T08:54:42.698Z,5.23
2023-01-12T08:57:10.200Z,4.07
2023-01-12T08:59:37.883Z,9.27
2023-01-12T09:02:07.069Z,5.53
2023-01-12T09:04:34.644Z,7.27
2023-01-12T09:07:02.588Z,6.40
2023-01-12T09:09:30.103Z,3.30
2023-01-12T09:11:57.613Z,3.93
2023-01-12T09:14:26.200Z,4.47
2023-01-12T09:16:53.971Z,4.60
2023-01-12T09:19:22.967Z,4.17
2023-01-12T09:21:50.620Z,7.80
2023-01-12T09:24:18.210Z,7.13
2023-01-12T09:26:47.666Z,3.70
2023-01-12T09:29:15.939Z,7.47
2023-01-12T09:31:45.064Z,5.23
2023-01-12T09:34:13.257Z,3.13
2023-01-12T09:36:42.484Z,5.50
2023-01-12T09:39:26.263Z,4.50
2023-01-12T09:42:12.702Z,3.70
2023-01-12T09:45:00.349Z,3.40
2023-01-12T09:47:33.786Z,4.87
2023-01-12T09:50:09.917Z,3.63
2023-01-12T09:52:44.726Z,4.40
2023-01-12T09:55:17.352Z,3.67
2023-01-12T09:58:06.620Z,3.60
2023-01-12T10:00:34.278Z,4.17
2023-01-12T10:03:12.778Z,4.27
2023-01-12T10:05:45.994Z,3.80
2023-01-12T10:08:23.853Z,3.27
2023-01-12T10:11:04.975Z,3.97
2023-01-12T10:13:47.055Z,3.03
2023-01-12T10:16:23.887Z,2.70
2023-01-12T10:18:54.820Z,3.47
2023-01-12T10:21:24.267Z,1.60
2023-01-12T10:23:54.841Z,3.37
2023-01-12T10:26:24.387Z,2.17
2023-01-12T10:28:55.560Z,3.70
2023-01-12T10:31:25.114Z,1.73
2023-01-12T10:34:07.836Z,2.37
2023-01-12T10:36:37.298Z,2.43
2023-01-12T10:39:29.969Z,2.60
2023-01-12T10:42:36.760Z,1.00
2023-01-12T10:45:20.730Z,1.00
2023-01-12T10:47:49.284Z,1.43
2023-01-12T10:50:22.761Z,1.87
2023-01-12T10:52:55.238Z,1.57
2023-01-12T10:55:25.132Z,1.57
2023-01-12T10:57:54.166Z,2.70
2023-01-12T11:00:26.235Z,2.40
2023-01-12T11:02:54.588Z,2.13
2023-01-12T11:05:35.447Z,0.60
2023-01-12T11:08:04.829Z,1.73
2023-01-12T11:10:36.572Z,1.00
2023-01-12T11:13:07.915Z,0.80
2023-01-12T11:15:39.008Z,0.70
2023-01-12T11:18:30.009Z,1.83
2023-01-12T11:21:03.784Z,2.03
2023-01-12T11:23:37.612Z,1.60
2023-01-12T11:26:16.817Z,2.43
2023-01-12T11:28:47.774Z,0.97
2023-01-12T11:31:20.713Z,1.00
2023-01-12T11:33:52.160Z,2.17
2023-01-12T11:36:25.136Z,0.70
2023-01-12T11:38:57.081Z,0.60
2023-01-12T11:41:31.343Z,1.40
2023-01-12T11:44:05.182Z,1.00
2023-01-12T11:46:39.775Z,0.83
2023-01-12T11:49:13.679Z,0.50
2023-01-12T11:51:42.907Z,0.87
2023-01-12T11:54:16.049Z,0.83
2023-01-12T11:57:01.097Z,0.90
2023-01-12T11:59:37.344Z,0.73
2023-01-12T12:02:22.609Z,0.77
2023-01-12T12:05:03.435Z,0.43
2023-01-12T12:07:43.971Z,2.00
2023-01-12T12:10:22.289Z,0.53
2023-01-12T12:13:12.182Z,0.87
2023-01-12T12:15:49.661Z,0.97
2023-01-12T12:18:26.295Z,0.97
2023-01-12T12:21:08.611Z,1.37
2023-01-12T12:23:45.065Z,1.83
2023-01-12T12:26:21.170Z,1.57
2023-01-12T12:29:03.155Z,1.03
2023-01-12T12:31:44.720Z,0.70
2023-01-12T12:34:51.407Z,0.70
2023-01-12T12:37:28.614Z,0.93
2023-01-12T12:39:58.251Z,0.90
2023-01-12T12:43:05.226Z,0.50
2023-01-12T12:45:43.989Z,0.70
2023-01-12T12:48:16.065Z,0.50
2023-01-12T12:50:49.251Z,0.80
2023-01-12T12:53:27.140Z,1.50
2023-01-12T12:55:58.925Z,1.03
2023-01-12T12:58:44.154Z,1.37
2023-01-12T13:02:00.060Z,0.40
2023-01-12T13:05:04.782Z,1.43
2023-01-12T13:07:36.786Z,1.53
2023-01-12T13:10:16.375Z,0.90
2023-01-12T13:12:44.757Z,1.63
2023-01-12T13:15:21.972Z,1.33
2023-01-12T13:17:53.780Z,1.10
2023-01-12T13:20:35.843Z,1.03
2023-01-12T13:23:03.622Z,0.67
2023-01-12T13:25:56.768Z,1.03
2023-01-12T13:28:24.353Z,1.33
2023-01-12T13:30:53.439Z,0.87
2023-01-12T13:33:27.940Z,0.73
2023-01-12T13:36:10.915Z,0.33
2023-01-12T13:39:08.084Z,0.37
2023-01-12T13:41:55.309Z,2.37
2023-01-12T13:44:28.139Z,0.23
2023-01-12T13:47:03.395Z,0.47
2023-01-12T13:49:34.988Z,0.77
2023-01-12T13:52:05.588Z,0.40
2023-01-12T13:54:34.445Z,0.23
2023-01-12T13:57:05.375Z,0.90
2023-01-12T13:59:34.848Z,0.87
2023-01-12T14:02:03.323Z,3.43
2023-01-12T14:04:48.673Z,0.37
2023-01-12T14:07:27.475Z,0.30
2023-01-12T14:10:08.709Z,0.60
2023-01-12T14:12:51.255Z,0.40
2023-01-12T14:15:45.814Z,0.60
2023-01-12T14:18:15.756Z,1.13
2023-01-12T14:20:47.191Z,0.40
2023-01-12T14:23:25.427Z,0.83
2023-01-12T14:26:07.161Z,0.90
2023-01-12T14:28:35.150Z,0.50
2023-01-12T14:31:04.374Z,0.77
2023-01-12T14:33:35.265Z,0.63
2023-01-12T14:36:08.087Z,0.40
2023-01-12T14:38:35.970Z,0.47
2023-01-12T14:41:06.407Z,0.70
2023-01-12T14:43:54.565Z,0.30
2023-01-12T14:46:27.864Z,0.50
2023-01-12T14:48:57.952Z,1.23
2023-01-12T14:51:28.916Z,0.27
2023-01-12T14:53:59.019Z,0.20
2023-01-12T14:56:29.449Z,0.40
2023-01-12T14:59:07.274Z,0.17
2023-01-12T15:01:37.109Z,0.23
2023-01-12T15:04:07.459Z,0.30
2023-01-12T15:06:40.480Z,1.07
2023-01-12T15:09:23.820Z,0.43
2023-01-12T15:11:51.404Z,1.03
2023-01-12T15:14:24.938Z,0.40
2023-01-12T15:17:10.715Z,0.40
2023-01-12T15:19:56.513Z,0.30
2023-01-12T15:22:45.936Z,0.90
2023-01-12T15:25:32.941Z,4.90
2023-01-12T15:28:00.456Z,1.03
2023-01-12T15:30:28.493Z,0.60
2023-01-12T15:32:56.535Z,0.60
2023-01-12T15:35:26.368Z,1.00
2023-01-12T15:37:57.373Z,2.13
2023-01-12T15:40:26.168Z,0.43
2023-01-12T15:42:54.148Z,0.50
2023-01-12T15:45:34.411Z,0.63
2023-01-12T15:48:02.358Z,1.10
2023-01-12T15:50:30.240Z,1.00
2023-01-12T15:53:00.604Z,1.17
2023-01-12T15:55:31.170Z,0.80
2023-01-12T15:57:58.756Z,2.33
2023-01-12T16:00:26.696Z,0.63
2023-01-12T16:02:54.250Z,0.77
2023-01-12T16:05:23.463Z,0.70
2023-01-12T16:07:51.357Z,0.83
2023-01-12T16:10:21.271Z,1.03
2023-01-12T16:12:48.871Z,1.33
2023-01-12T16:15:18.455Z,0.47
2023-01-12T16:17:46.842Z,0.83
2023-01-12T16:20:16.778Z,0.40
2023-01-12T16:22:45.462Z,0.40
2023-01-12T16:25:13.628Z,0.77
2023-01-12T16:27:42.596Z,0.50
2023-01-12T16:30:13.625Z,0.77
2023-01-12T16:32:45.783Z,0.90
2023-01-12T16:35:14.884Z,0.97
2023-01-12T16:37:42.383Z,0.40
2023-01-12T16:40:11.795Z,1.90
2023-01-12T16:42:39.382Z,0.40
2023-01-12T16:45:09.231Z,0.40
2023-01-12T16:47:36.910Z,0.50
2023-01-12T16:50:05.061Z,0.80
2023-01-12T16:52:32.813Z,1.10
2023-01-12T16:55:00.313Z,0.50
2023-01-12T16:57:27.858Z,0.80
2023-01-12T16:59:55.391Z,0.23
2023-01-12T17:02:24.547Z,0.60
2023-01-12T17:04:53.105Z,0.40
2023-01-12T17:07:21.172Z,0.53
2023-01-12T17:09:49.408Z,0.40
2023-01-12T17:12:17.274Z,0.20
2023-01-12T17:14:45.244Z,1.27
2023-01-12T17:17:13.617Z,0.87
2023-01-12T17:19:43.549Z,0.20
2023-01-12T17:22:12.379Z,1.27
2023-01-12T17:24:41.052Z,0.83
2023-01-12T17:27:10.203Z,1.60
2023-01-12T17:29:37.825Z,0.50
2023-01-12T17:32:07.248Z,0.70
2023-01-12T17:34:38.662Z,0.60
2023-01-12T17:37:08.659Z,0.90
2023-01-12T17:39:37.315Z,0.23
2023-01-12T17:42:22.840Z,0.80
2023-01-12T17:44:50.381Z,0.40
2023-01-12T17:47:17.983Z,0.90
2023-01-12T17:49:47.720Z,0.40
2023-01-12T17:52:17.021Z,0.33
2023-01-12T17:54:44.725Z,1.40
2023-01-12T17:57:12.494Z,0.90
2023-01-12T17:59:40.089Z,0.50
2023-01-12T18:02:08.350Z,0.30
2023-01-12T18:04:35.939Z,0.30
2023-01-12T18:07:03.699Z,1.03
2023-01-12T18:09:32.596Z,0.47
2023-01-12T18:12:00.834Z,0.20
2023-01-12T18:14:28.451Z,0.73
2023-01-12T18:16:57.366Z,1.17
2023-01-12T18:19:24.876Z,0.77
2023-01-12T18:21:52.459Z,0.70
2023-01-12T18:24:20.063Z,0.20
2023-01-12T18:26:50.820Z,0.43
2023-01-12T18:29:18.400Z,0.33
2023-01-12T18:31:47.245Z,0.50
2023-01-12T18:34:16.428Z,0.50
2023-01-12T18:36:43.948Z,0.70
2023-01-12T18:39:15.985Z,0.47
2023-01-12T18:42:01.781Z,0.77
2023-01-12T18:44:32.008Z,0.27
2023-01-12T18:47:17.123Z,2.57
2023-01-12T18:49:45.756Z,1.70
2023-01-12T18:52:36.637Z,2.50
2023-01-12T18:55:05.292Z,0.63
2023-01-12T18:57:33.621Z,0.37
2023-01-12T19:00:13.347Z,1.57
2023-01-12T19:02:41.082Z,0.40
2023-01-12T19:05:24.750Z,0.43
2023-01-12T19:08:04.996Z,0.53
2023-01-12T19:10:33.603Z,0.50
2023-01-12T19:13:19.071Z,1.93
2023-01-12T19:16:05.495Z,0.90
2023-01-12T19:18:35.232Z,1.10
2023-01-12T19:24:14.198Z,0.87
2023-01-12T19:26:59.374Z,0.90
2023-01-12T19:29:27.235Z,2.27
2023-01-12T19:31:54.932Z,0.60
2023-01-12T19:34:24.728Z,1.17
2023-01-12T19:36:52.903Z,1.00
2023-01-12T19:39:34.165Z,0.70
2023-01-12T19:42:19.301Z,1.33
2023-01-12T19:44:46.871Z,1.07
2023-01-12T19:47:14.369Z,0.40
2023-01-12T19:49:42.015Z,0.77
2023-01-12T19:52:09.566Z,0.53
2023-01-12T19:54:38.406Z,0.60
2023-01-12T19:57:06.309Z,0.53
2023-01-12T19:59:33.832Z,0.60
2023-01-12T20:02:02.298Z,1.00
2023-01-12T20:04:30.723Z,0.70
2023-01-12T20:06:58.456Z,0.40
2023-01-12T20:09:25.998Z,0.50
2023-01-12T20:11:55.218Z,0.50
2023-01-12T20:14:23.069Z,2.17
2023-01-12T20:16:50.671Z,0.60
2023-01-12T20:19:19.092Z,2.17
2023-01-12T20:21:46.631Z,0.40
2023-01-12T20:24:14.138Z,0.53
2023-01-12T20:26:42.131Z,0.47
2023-01-12T20:29:11.031Z,0.57
2023-01-12T20:31:38.566Z,1.07
2023-01-12T20:34:06.210Z,0.60
2023-01-12T20:36:33.981Z,0.60
2023-01-12T20:39:01.571Z,0.30
2023-01-12T20:41:29.172Z,0.50
2023-01-12T20:43:56.755Z,0.50
2023-01-12T20:46:25.651Z,0.67
2023-01-12T20:48:53.177Z,1.00
2023-01-12T20:51:20.700Z,0.87
2023-01-12T20:53:48.272Z,0.70
2023-01-12T20:56:15.814Z,0.80
2023-01-12T20:58:43.372Z,0.90
2023-01-12T21:01:11.945Z,0.70
2023-01-12T21:03:41.050Z,0.77
2023-01-12T21:06:09.798Z,0.80
2023-01-12T21:08:38.799Z,0.60
2023-01-12T21:11:06.534Z,0.40
2023-01-12T21:13:34.680Z,0.40
2023-01-12T21:16:04.034Z,1.23
2023-01-12T21:18:32.599Z,0.63
2023-01-12T21:21:01.846Z,0.40
2023-01-12T21:23:29.456Z,0.67
2023-01-12T21:25:56.970Z,0.60
2023-01-12T21:28:24.682Z,0.77
2023-01-12T21:30:52.460Z,0.37
2023-01-12T21:33:20.083Z,0.53
2023-01-12T21:35:55.572Z,0.70
2023-01-12T21:38:24.973Z,0.47
2023-01-12T21:40:52.803Z,0.97
2023-01-12T21:43:20.449Z,1.60
2023-01-12T21:45:49.807Z,0.57
2023-01-12T21:48:19.395Z,0.30
2023-01-12T21:50:47.029Z,0.57
2023-01-12T21:53:16.109Z,0.40
2023-01-12T21:55:53.542Z,0.47
2023-01-12T21:58:21.063Z,0.83
2023-01-12T22:00:48.613Z,0.20
2023-01-12T22:03:16.207Z,0.83
2023-01-12T22:05:44.388Z,0.40
2023-01-12T22:08:12.019Z,0.30
2023-01-12T22:10:39.640Z,1.07
2023-01-12T22:13:14.666Z,0.30
2023-01-12T22:15:43.208Z,0.80
2023-01-12T22:18:11.070Z,0.30
2023-01-12T22:20:38.758Z,0.50
2023-01-12T22:23:06.363Z,0.73
2023-01-12T22:25:33.952Z,0.20
2023-01-12T22:28:01.533Z,0.43
2023-01-12T22:30:30.544Z,0.50
2023-01-12T22:32:58.090Z,0.77
2023-01-12T22:35:26.075Z,0.20
2023-01-12T22:37:54.648Z,0.40
2023-01-12T22:40:22.265Z,0.20
2023-01-12T22:43:07.485Z,0.30
2023-01-12T22:45:37.523Z,0.13
2023-01-12T22:48:05.727Z,0.30
2023-01-12T22:50:33.363Z,0.43
2023-01-12T22:53:00.943Z,0.40
2023-01-12T22:55:28.639Z,1.53
2023-01-12T22:57:56.151Z,0.37
2023-01-12T23:00:23.928Z,0.27
2023-01-12T23:03:02.647Z,0.50
2023-01-12T23:05:35.711Z,0.20
2023-01-12T23:08:04.268Z,0.30
2023-01-12T23:10:31.931Z,0.23
2023-01-12T23:13:19.185Z,0.30
2023-01-12T23:15:49.536Z,0.40
2023-01-12T23:18:20.847Z,0.90
2023-01-12T23:20:49.973Z,1.10
2023-01-12T23:23:18.581Z,1.00
2023-01-12T23:25:47.200Z,0.37
2023-01-12T23:28:15.827Z,0.30
2023-01-12T23:30:43.980Z,0.53
2023-01-12T23:33:11.648Z,0.37
2023-01-12T23:35:42.471Z,1.13
2023-01-12T23:38:14.812Z,0.50
2023-01-12T23:40:42.456Z,0.90
2023-01-12T23:43:10.078Z,0.30
2023-01-12T23:45:37.847Z,1.40
2023-01-12T23:48:07.695Z,0.40
2023-01-12T23:50:35.399Z,0.50
2023-01-12T23:53:04.415Z,0.50
2023-01-12T23:55:32.140Z,0.40
2023-01-12T23:57:59.834Z,0.40
